AirNav   Everest Fuels
 
 1081 users online  

56PN Atlantic Refining & Marketing Corp Heliport
Philadelphia, Pennsylvania, USA

GOING TO PHILADELPHIA?


FAA INFORMATION EFFECTIVE 08 OCTOBER 2020

Location

FAA Identifier: 56PN
Lat/Long: 39-55-11.4060N 075-11-47.6460W
39-55.190100N 075-11.794100W
39.9198350,-75.1965683
(estimated)
Elevation: 30 ft. / 9 m (estimated)
Variation: 11W (1985)
From city: 3 miles SW of PHILADELPHIA, PA
Time zone: UTC -4 (UTC -5 during Standard Time)
Zip code: 19145

Heliport Operations

Heliport use: Private use. Permission required prior to landing
Activation date: 09/1980
Control tower: no
ARTCC: NEW YORK CENTER
FSS: WILLIAMSPORT FLIGHT SERVICE STATION
Attendance: CONTINUOUS
Wind indicator: lighted
Segmented circle: no
Lights: FOR PERIMETER LGTS CALL 215-339-2000.

Heliport Communications

WX ASOS at PHL (4 nm SW): PHONE 215-492-9617
WX ASOS at PNE (13 nm NE): 121.15 (215-677-0146)
WX AWOS-3 at LOM (13 nm N): 118.925 (215-646-1068)
WX ASOS at VAY (16 nm E): 119.325 (609-267-1176)
WX AWOS-3T at OQN (18 nm W): 121.4 ((610) 692-6190)

Nearby radio navigation aids

VOR radial/distance  VOR name  Freq  Var
OODr026/17.7WOODSTOWN VORTAC112.8010W
MXEr099/21.8MODENA VORTAC113.2009W
DQOr063/23.8DUPONT VORTAC114.0010W
ARDr224/24.0YARDLEY VOR/DME108.2010W
PTWr146/24.7POTTSTOWN VORTAC116.5009W
VCNr345/25.3CEDAR LAKE VOR/DME115.2010W
GXUr271/28.1MC GUIRE VORTAC110.6012W
CYNr290/35.8COYLE VORTAC113.4010W
RBVr252/36.4ROBBINSVILLE VORTAC113.8010W
ACYr324/39.9ATLANTIC CITY VORTAC117.1510W

 
NDB name  Hdg/Dist  Freq  Var  ID
AMBLER174/13.027512WING .. -. --.
RAINBOW006/30.236311WRNB .-. -. -...

Heliport Services

Runway Information

Helipad H1

Dimensions: 90 x 90 ft. / 27 x 27 m
Surface: asphalt, in fair condition
Runway edge lights: PERI
Latitude: 39-55.190100N
Longitude: 075-11.794100W
Elevation: 30.0 ft.
Traffic pattern: leftleft
Markings: none, in fair condition

Heliport Ownership and Management from official FAA records

Ownership: Privately-owned
Owner: SUN REFINING & MARKETING CO.
3144 PASSYUNK AVE
PHILADELPHIA, PA 19145
Phone 215-339-2000
Manager: J. ROSSI
3144 PASSYUNK AVE
PHILADELPHIA, PA 19145
Phone 215-339-2000

Additional Remarks

FOR CD CTC PHILADELPHIA APCH AT 800-354-9884.

Instrument Procedures

There are no published instrument procedures at 56PN.

Some nearby airports with instrument procedures:

KPHL - Philadelphia International Airport (4 nm SW)
KPNE - Northeast Philadelphia Airport (13 nm NE)
KLOM - Wings Field Airport (13 nm N)
19N - Camden County Airport (14 nm SE)
7N7 - Spitfire Aerodrome (14 nm SW)
17N - Cross Keys Airport (15 nm SE)
KVAY - South Jersey Regional Airport (16 nm E)
N14 - Flying W Airport (18 nm E)
KOQN - Brandywine Regional Airport (18 nm W)
 
Loc | Ops | Rwys | IFR | FBO | Links
Com | Nav | Svcs | Stats | Notes
Area around 56PN (Atlantic Refining & Marketing Corp Heliport)
 
Road maps at: MapQuest Bing Google
 
Aerial photo
No photo
 
Sectional chart

 
Airport distance calculator
Flying to Atlantic Refining & Marketing Corp Heliport? Find the distance to fly.

From to 56PN

Sunrise and sunset
Times for 28-Oct-2020
 Local
(UTC-4)
 Zulu
(UTC)
Morning civil twilight06:5910:59
Sunrise07:2711:27
Sunset18:0222:02
Evening civil twilight18:3022:30

Current date and time
Zulu (UTC)  29-Oct-2020 00:38:50
Local (UTC-4)  28-Oct-2020 20:38:50
 
METAR
KPHL 
4nm SW 
282354Z VRB03KT 10SM OVC024 15/11 A3001 RMK AO2 SLP162 T01500111 10194 20150 53006
KPNE 
13nm NE 
282354Z 00000KT 10SM BKN065 OVC080 15/12 A3002 RMK AO2 SLP165 T01500117 10156 20150 52009
KLOM 
13nm N 
290015Z AUTO 00000KT 10SM OVC075 13/11 A3002 RMK AO2 T01340113
KVAY 
17nm E 
ASOS 119.325 609-267-1176
282354Z AUTO 00000KT 10SM OVC023 16/12 A3000 RMK AO2 SLP159 T01560122 10167 20150 53009
KOQN 
18nm W 
282355Z AUTO 00000KT 10SM OVC070 14/11 A3002 RMK AO2
TAF
KPHL 
4nm SW 
282145Z 2822/2924 32005KT P6SM BKN015 OVC060 TEMPO 2822/2902 SCT020 FM290800 VRB03KT 5SM -RA OVC009 FM291200 04010G20KT 3SM RA OVC006
KPNE 
13nm NE 
282146Z 2822/2918 VRB04KT P6SM BKN020 OVC060 TEMPO 2822/2902 SCT025 FM290800 05003KT 5SM -RA OVC008 FM291200 05010KT 2SM +RA OVC006
NOTAMs
Click for the latest NOTAMs
NOTAMs are issued by the DoD/FAA and will open in a separate window not controlled by AirNav.

 

 
 

Would you like to see your business listed on this page?

 If your business provides an interesting product or service to pilots, flight crews, aircraft, or users of the Atlantic Refining & Marketing Corp Heliport, you should consider listing it here.  To start the listing process, click on the button below
 
Add a business
 

Other Pages about Atlantic Refining & Marketing Corp Heliport

Update a link
 
Copyright © AirNav, LLC. All rights reserved. Privacy Policy  Contact